This is the latest recevied weather packets stored in our database for station/object IU1FIL-23. If no packets are shown the sender has not sent any weather packets the latest 1 day(s).
| Time | Temp. | Humidity | Pressure | Rain* | Wind** | Luminosity | Snow |
|---|---|---|---|---|---|---|---|
| 1777769520 | 11.67° C | 36% | 1022.4 hPa | - | - | - | - |
| 1777768916 | 11.67° C | 33% | 1022.4 hPa | - | - | - | - |
| 1777768312 | 11.11° C | 37% | 1022.6 hPa | - | - | - | - |
| 1777767708 | 11.11° C | 39% | 1022.8 hPa | - | - | - | - |
| 1777767104 | 11.11° C | 41% | 1022.9 hPa | - | - | - | - |
| 1777766500 | 11.67° C | 39% | 1022.9 hPa | - | - | - | - |
| 1777765896 | 11.67° C | 38% | 1022.9 hPa | - | - | - | - |
| 1777765291 | 11.67° C | 38% | 1023 hPa | - | - | - | - |
| 1777764687 | 11.67° C | 38% | 1023 hPa | - | - | - | - |
| 1777764083 | 11.67° C | 37% | 1023.2 hPa | - | - | - | - |
| 1777763469 | 11.11° C | 38% | 1023.3 hPa | - | - | - | - |
| 1777762865 | 11.11° C | 38% | 1023.3 hPa | - | - | - | - |
| 1777762261 | 11.11° C | 38% | 1023.3 hPa | - | - | - | - |
| 1777761657 | 11.11° C | 37% | 1023.4 hPa | - | - | - | - |
| 1777761052 | 11.11° C | 37% | 1023.4 hPa | - | - | - | - |
| 1777760448 | 11.11° C | 37% | 1023.4 hPa | - | - | - | - |
| 1777759844 | 11.11° C | 37% | 1023.5 hPa | - | - | - | - |
| 1777759240 | 11.67° C | 36% | 1023.4 hPa | - | - | - | - |
| 1777758636 | 12.22° C | 36% | 1023.5 hPa | - | - | - | - |
| 1777758032 | 12.22° C | 35% | 1023.6 hPa | - | - | - | - |
| 1777756824 | 12.78° C | 33% | 1023.5 hPa | - | - | - | - |
| 1777756219 | 13.33° C | 31% | 1023.6 hPa | - | - | - | - |
| 1777755615 | 13.33° C | 29% | 1023.7 hPa | - | - | - | - |
| 1777755011 | 13.33° C | 30% | 1023.7 hPa | - | - | - | - |
| 1777754407 | 13.33° C | 32% | 1023.9 hPa | - | - | - | - |
* Rain since midnight (hover to see other rain measurements)
** Current wind speed in m/s (hover to see current wind gust speed)